sensor_id;sensor_type;location;lat;lon;timestamp;P1;durP1;ratioP1;P2;durP2;ratioP2
20298;SDS011;10308;42.688;23.256;2023-11-22T00:00:20;19.83;;;17.77;;
20298;SDS011;10308;42.688;23.256;2023-11-22T00:02:49;18.90;;;17.20;;
20298;SDS011;10308;42.688;23.256;2023-11-22T00:05:16;19.15;;;17.23;;
20298;SDS011;10308;42.688;23.256;2023-11-22T00:07:43;18.67;;;16.77;;
20298;SDS011;10308;42.688;23.256;2023-11-22T00:10:10;19.17;;;17.23;;
20298;SDS011;10308;42.688;23.256;2023-11-22T00:12:37;18.92;;;17.00;;
20298;SDS011;10308;42.688;23.256;2023-11-22T00:15:04;19.95;;;18.05;;
20298;SDS011;10308;42.688;23.256;2023-11-22T00:17:32;19.50;;;17.60;;
20298;SDS011;10308;42.688;23.256;2023-11-22T00:20:02;19.38;;;17.42;;
20298;SDS011;10308;42.688;23.256;2023-11-22T00:22:30;19.48;;;17.55;;
20298;SDS011;10308;42.688;23.256;2023-11-22T00:24:58;18.75;;;16.85;;
20298;SDS011;10308;42.688;23.256;2023-11-22T00:27:26;20.38;;;18.15;;
20298;SDS011;10308;42.688;23.256;2023-11-22T00:29:56;19.02;;;17.00;;
20298;SDS011;10308;42.688;23.256;2023-11-22T00:32:23;18.13;;;16.33;;
20298;SDS011;10308;42.688;23.256;2023-11-22T00:34:50;16.48;;;14.88;;
20298;SDS011;10308;42.688;23.256;2023-11-22T00:37:19;17.35;;;15.65;;
20298;SDS011;10308;42.688;23.256;2023-11-22T00:39:46;17.20;;;15.60;;
20298;SDS011;10308;42.688;23.256;2023-11-22T00:42:14;16.38;;;14.88;;
20298;SDS011;10308;42.688;23.256;2023-11-22T00:44:45;16.25;;;14.65;;
20298;SDS011;10308;42.688;23.256;2023-11-22T00:47:12;16.27;;;14.57;;
20298;SDS011;10308;42.688;23.256;2023-11-22T00:49:41;15.70;;;14.18;;
20298;SDS011;10308;42.688;23.256;2023-11-22T00:52:08;15.13;;;13.63;;
20298;SDS011;10308;42.688;23.256;2023-11-22T00:54:37;15.50;;;14.00;;
20298;SDS011;10308;42.688;23.256;2023-11-22T00:57:06;16.02;;;14.43;;
20298;SDS011;10308;42.688;23.256;2023-11-22T00:59:34;15.88;;;14.27;;
20298;SDS011;10308;42.688;23.256;2023-11-22T01:02:01;14.90;;;13.50;;
20298;SDS011;10308;42.688;23.256;2023-11-22T01:04:30;15.40;;;13.95;;
20298;SDS011;10308;42.688;23.256;2023-11-22T01:07:01;14.60;;;13.10;;
20298;SDS011;10308;42.688;23.256;2023-11-22T01:09:29;14.45;;;12.95;;
20298;SDS011;10308;42.688;23.256;2023-11-22T01:11:58;15.05;;;13.57;;
20298;SDS011;10308;42.688;23.256;2023-11-22T01:14:25;14.82;;;13.30;;
20298;SDS011;10308;42.688;23.256;2023-11-22T01:16:53;15.02;;;13.35;;
20298;SDS011;10308;42.688;23.256;2023-11-22T01:19:20;15.23;;;13.63;;
20298;SDS011;10308;42.688;23.256;2023-11-22T01:21:47;15.85;;;14.18;;
20298;SDS011;10308;42.688;23.256;2023-11-22T01:24:17;14.57;;;13.15;;
20298;SDS011;10308;42.688;23.256;2023-11-22T01:26:44;14.70;;;13.25;;
20298;SDS011;10308;42.688;23.256;2023-11-22T01:29:13;15.23;;;13.73;;
20298;SDS011;10308;42.688;23.256;2023-11-22T01:31:40;14.73;;;13.32;;
20298;SDS011;10308;42.688;23.256;2023-11-22T01:34:09;13.75;;;12.38;;
20298;SDS011;10308;42.688;23.256;2023-11-22T01:36:37;15.23;;;13.32;;
20298;SDS011;10308;42.688;23.256;2023-11-22T01:39:07;13.90;;;12.52;;
20298;SDS011;10308;42.688;23.256;2023-11-22T01:41:34;14.15;;;12.65;;
20298;SDS011;10308;42.688;23.256;2023-11-22T01:44:01;14.00;;;12.60;;
20298;SDS011;10308;42.688;23.256;2023-11-22T01:46:29;14.35;;;12.88;;
20298;SDS011;10308;42.688;23.256;2023-11-22T01:48:57;14.05;;;12.57;;
20298;SDS011;10308;42.688;23.256;2023-11-22T01:51:24;14.32;;;12.68;;
20298;SDS011;10308;42.688;23.256;2023-11-22T01:53:53;13.18;;;11.98;;
20298;SDS011;10308;42.688;23.256;2023-11-22T01:56:23;13.65;;;12.35;;
20298;SDS011;10308;42.688;23.256;2023-11-22T01:58:51;14.07;;;12.68;;
20298;SDS011;10308;42.688;23.256;2023-11-22T02:01:19;14.85;;;13.25;;
20298;SDS011;10308;42.688;23.256;2023-11-22T02:03:48;13.52;;;12.23;;
20298;SDS011;10308;42.688;23.256;2023-11-22T02:06:17;13.80;;;12.50;;
20298;SDS011;10308;42.688;23.256;2023-11-22T02:08:44;12.93;;;11.80;;
20298;SDS011;10308;42.688;23.256;2023-11-22T02:11:11;13.43;;;12.10;;
20298;SDS011;10308;42.688;23.256;2023-11-22T02:13:38;13.05;;;11.65;;
20298;SDS011;10308;42.688;23.256;2023-11-22T02:16:05;13.05;;;11.68;;
20298;SDS011;10308;42.688;23.256;2023-11-22T02:18:32;12.55;;;11.35;;
20298;SDS011;10308;42.688;23.256;2023-11-22T02:21:05;12.82;;;11.52;;
20298;SDS011;10308;42.688;23.256;2023-11-22T02:23:34;13.38;;;12.10;;
20298;SDS011;10308;42.688;23.256;2023-11-22T02:26:00;12.13;;;11.13;;
20298;SDS011;10308;42.688;23.256;2023-11-22T02:28:27;11.98;;;10.85;;
20298;SDS011;10308;42.688;23.256;2023-11-22T02:30:54;13.15;;;11.82;;
20298;SDS011;10308;42.688;23.256;2023-11-22T02:33:21;12.38;;;11.15;;
20298;SDS011;10308;42.688;23.256;2023-11-22T02:35:48;12.45;;;11.15;;
20298;SDS011;10308;42.688;23.256;2023-11-22T02:38:15;12.98;;;11.68;;
20298;SDS011;10308;42.688;23.256;2023-11-22T02:40:44;13.02;;;11.73;;
20298;SDS011;10308;42.688;23.256;2023-11-22T02:43:11;12.70;;;11.50;;
20298;SDS011;10308;42.688;23.256;2023-11-22T02:45:38;12.82;;;11.65;;
20298;SDS011;10308;42.688;23.256;2023-11-22T02:48:06;12.55;;;11.32;;
20298;SDS011;10308;42.688;23.256;2023-11-22T02:50:34;13.15;;;11.95;;
20298;SDS011;10308;42.688;23.256;2023-11-22T02:53:02;12.60;;;11.40;;
20298;SDS011;10308;42.688;23.256;2023-11-22T02:55:30;12.25;;;11.13;;
20298;SDS011;10308;42.688;23.256;2023-11-22T02:58:01;11.77;;;10.60;;
20298;SDS011;10308;42.688;23.256;2023-11-22T03:00:28;12.30;;;11.20;;
20298;SDS011;10308;42.688;23.256;2023-11-22T03:02:56;12.82;;;11.73;;
20298;SDS011;10308;42.688;23.256;2023-11-22T03:05:23;13.10;;;11.80;;
20298;SDS011;10308;42.688;23.256;2023-11-22T03:07:52;13.38;;;12.13;;
20298;SDS011;10308;42.688;23.256;2023-11-22T03:10:19;14.50;;;12.30;;
20298;SDS011;10308;42.688;23.256;2023-11-22T03:12:46;13.10;;;11.73;;
20298;SDS011;10308;42.688;23.256;2023-11-22T03:15:14;13.10;;;11.90;;
20298;SDS011;10308;42.688;23.256;2023-11-22T03:17:41;12.95;;;11.75;;
20298;SDS011;10308;42.688;23.256;2023-11-22T03:20:09;13.98;;;12.40;;
20298;SDS011;10308;42.688;23.256;2023-11-22T03:22:37;12.90;;;11.70;;
20298;SDS011;10308;42.688;23.256;2023-11-22T03:25:05;12.30;;;11.15;;
20298;SDS011;10308;42.688;23.256;2023-11-22T03:27:35;12.23;;;11.05;;
20298;SDS011;10308;42.688;23.256;2023-11-22T03:30:02;13.85;;;12.65;;
20298;SDS011;10308;42.688;23.256;2023-11-22T03:32:31;13.40;;;12.00;;
20298;SDS011;10308;42.688;23.256;2023-11-22T03:35:02;13.90;;;12.52;;
20298;SDS011;10308;42.688;23.256;2023-11-22T03:37:29;15.82;;;12.85;;
20298;SDS011;10308;42.688;23.256;2023-11-22T03:39:56;14.13;;;12.80;;
20298;SDS011;10308;42.688;23.256;2023-11-22T03:42:25;14.82;;;13.35;;
20298;SDS011;10308;42.688;23.256;2023-11-22T03:44:53;15.00;;;13.52;;
20298;SDS011;10308;42.688;23.256;2023-11-22T03:47:20;14.68;;;13.20;;
20298;SDS011;10308;42.688;23.256;2023-11-22T03:49:48;14.98;;;13.57;;
20298;SDS011;10308;42.688;23.256;2023-11-22T03:52:17;14.23;;;12.85;;
20298;SDS011;10308;42.688;23.256;2023-11-22T03:54:45;14.55;;;13.15;;
20298;SDS011;10308;42.688;23.256;2023-11-22T03:57:14;13.95;;;12.55;;
20298;SDS011;10308;42.688;23.256;2023-11-22T03:59:42;14.07;;;12.65;;
20298;SDS011;10308;42.688;23.256;2023-11-22T04:02:09;13.88;;;12.48;;
20298;SDS011;10308;42.688;23.256;2023-11-22T04:04:37;12.85;;;11.52;;
20298;SDS011;10308;42.688;23.256;2023-11-22T04:07:07;13.70;;;12.30;;
20298;SDS011;10308;42.688;23.256;2023-11-22T04:09:34;13.15;;;11.98;;
20298;SDS011;10308;42.688;23.256;2023-11-22T04:12:01;15.07;;;13.60;;
20298;SDS011;10308;42.688;23.256;2023-11-22T04:14:29;14.40;;;12.90;;
20298;SDS011;10308;42.688;23.256;2023-11-22T04:16:56;14.52;;;13.13;;
20298;SDS011;10308;42.688;23.256;2023-11-22T04:19:23;14.65;;;13.05;;
20298;SDS011;10308;42.688;23.256;2023-11-22T04:21:49;14.73;;;13.07;;
20298;SDS011;10308;42.688;23.256;2023-11-22T04:24:19;13.13;;;11.90;;
20298;SDS011;10308;42.688;23.256;2023-11-22T04:26:46;14.70;;;13.27;;
20298;SDS011;10308;42.688;23.256;2023-11-22T04:29:13;14.32;;;13.00;;
20298;SDS011;10308;42.688;23.256;2023-11-22T04:31:41;15.55;;;14.05;;
20298;SDS011;10308;42.688;23.256;2023-11-22T04:34:08;15.38;;;13.88;;
20298;SDS011;10308;42.688;23.256;2023-11-22T04:36:35;15.15;;;13.65;;
20298;SDS011;10308;42.688;23.256;2023-11-22T04:39:04;14.30;;;12.90;;
20298;SDS011;10308;42.688;23.256;2023-11-22T04:41:33;14.73;;;12.35;;
20298;SDS011;10308;42.688;23.256;2023-11-22T04:44:00;13.63;;;11.43;;
20298;SDS011;10308;42.688;23.256;2023-11-22T04:46:28;14.82;;;11.82;;
20298;SDS011;10308;42.688;23.256;2023-11-22T04:48:54;13.50;;;12.13;;
20298;SDS011;10308;42.688;23.256;2023-11-22T04:51:22;12.48;;;11.27;;
20298;SDS011;10308;42.688;23.256;2023-11-22T04:53:49;14.60;;;13.10;;
20298;SDS011;10308;42.688;23.256;2023-11-22T04:56:16;14.20;;;11.70;;
20298;SDS011;10308;42.688;23.256;2023-11-22T04:58:46;14.77;;;13.05;;
20298;SDS011;10308;42.688;23.256;2023-11-22T05:01:22;14.73;;;12.15;;
20298;SDS011;10308;42.688;23.256;2023-11-22T05:03:52;15.20;;;12.10;;
20298;SDS011;10308;42.688;23.256;2023-11-22T05:06:19;14.43;;;13.02;;
20298;SDS011;10308;42.688;23.256;2023-11-22T05:08:46;15.05;;;13.55;;
20298;SDS011;10308;42.688;23.256;2023-11-22T05:11:13;14.93;;;13.02;;
20298;SDS011;10308;42.688;23.256;2023-11-22T05:13:41;13.00;;;11.77;;
20298;SDS011;10308;42.688;23.256;2023-11-22T05:16:10;13.73;;;12.55;;
20298;SDS011;10308;42.688;23.256;2023-11-22T05:18:39;14.45;;;13.18;;
20298;SDS011;10308;42.688;23.256;2023-11-22T05:21:09;15.32;;;13.82;;
20298;SDS011;10308;42.688;23.256;2023-11-22T05:23:36;16.73;;;15.02;;
20298;SDS011;10308;42.688;23.256;2023-11-22T05:26:06;19.73;;;16.52;;
20298;SDS011;10308;42.688;23.256;2023-11-22T05:28:33;16.42;;;14.18;;
20298;SDS011;10308;42.688;23.256;2023-11-22T05:31:00;17.35;;;14.88;;
20298;SDS011;10308;42.688;23.256;2023-11-22T05:33:29;16.33;;;14.65;;
20298;SDS011;10308;42.688;23.256;2023-11-22T05:35:57;16.42;;;13.70;;
20298;SDS011;10308;42.688;23.256;2023-11-22T05:38:25;14.68;;;12.77;;
20298;SDS011;10308;42.688;23.256;2023-11-22T05:40:52;15.07;;;13.65;;
20298;SDS011;10308;42.688;23.256;2023-11-22T05:43:19;14.73;;;13.30;;
20298;SDS011;10308;42.688;23.256;2023-11-22T05:45:51;14.63;;;13.13;;
20298;SDS011;10308;42.688;23.256;2023-11-22T05:48:18;15.07;;;13.68;;
20298;SDS011;10308;42.688;23.256;2023-11-22T05:50:47;14.95;;;13.45;;
20298;SDS011;10308;42.688;23.256;2023-11-22T05:53:14;14.75;;;13.27;;
20298;SDS011;10308;42.688;23.256;2023-11-22T05:55:44;14.95;;;13.45;;
20298;SDS011;10308;42.688;23.256;2023-11-22T05:58:11;14.88;;;13.38;;
20298;SDS011;10308;42.688;23.256;2023-11-22T06:00:42;18.25;;;16.17;;
20298;SDS011;10308;42.688;23.256;2023-11-22T06:03:10;17.92;;;16.23;;
20298;SDS011;10308;42.688;23.256;2023-11-22T06:05:37;17.83;;;15.65;;
20298;SDS011;10308;42.688;23.256;2023-11-22T06:08:06;19.38;;;17.50;;
20298;SDS011;10308;42.688;23.256;2023-11-22T06:10:34;18.92;;;16.98;;
20298;SDS011;10308;42.688;23.256;2023-11-22T06:13:01;19.25;;;17.17;;
20298;SDS011;10308;42.688;23.256;2023-11-22T06:15:28;20.67;;;18.60;;
20298;SDS011;10308;42.688;23.256;2023-11-22T06:17:55;19.08;;;17.08;;
20298;SDS011;10308;42.688;23.256;2023-11-22T06:20:24;18.38;;;16.25;;
20298;SDS011;10308;42.688;23.256;2023-11-22T06:22:52;19.02;;;17.02;;
20298;SDS011;10308;42.688;23.256;2023-11-22T06:25:21;18.83;;;15.88;;
20298;SDS011;10308;42.688;23.256;2023-11-22T06:27:48;17.08;;;15.43;;
20298;SDS011;10308;42.688;23.256;2023-11-22T06:30:18;17.73;;;15.90;;
20298;SDS011;10308;42.688;23.256;2023-11-22T06:32:45;16.08;;;14.48;;
20298;SDS011;10308;42.688;23.256;2023-11-22T06:35:14;16.45;;;14.88;;
20298;SDS011;10308;42.688;23.256;2023-11-22T06:37:42;17.27;;;15.48;;
20298;SDS011;10308;42.688;23.256;2023-11-22T06:40:10;16.88;;;15.23;;
20298;SDS011;10308;42.688;23.256;2023-11-22T06:42:40;17.13;;;15.52;;
20298;SDS011;10308;42.688;23.256;2023-11-22T06:45:08;19.05;;;17.08;;
20298;SDS011;10308;42.688;23.256;2023-11-22T06:47:38;19.60;;;17.63;;
20298;SDS011;10308;42.688;23.256;2023-11-22T06:50:05;18.63;;;16.83;;
20298;SDS011;10308;42.688;23.256;2023-11-22T06:52:34;17.95;;;16.15;;
20298;SDS011;10308;42.688;23.256;2023-11-22T06:55:01;18.42;;;16.63;;
20298;SDS011;10308;42.688;23.256;2023-11-22T06:57:28;17.67;;;15.98;;
20298;SDS011;10308;42.688;23.256;2023-11-22T06:59:56;17.65;;;15.93;;
20298;SDS011;10308;42.688;23.256;2023-11-22T07:02:24;18.83;;;16.58;;
20298;SDS011;10308;42.688;23.256;2023-11-22T07:04:50;18.50;;;16.50;;
20298;SDS011;10308;42.688;23.256;2023-11-22T07:07:18;18.63;;;16.75;;
20298;SDS011;10308;42.688;23.256;2023-11-22T07:09:45;20.98;;;18.88;;
20298;SDS011;10308;42.688;23.256;2023-11-22T07:12:15;20.95;;;18.85;;
20298;SDS011;10308;42.688;23.256;2023-11-22T07:14:43;21.40;;;19.05;;
20298;SDS011;10308;42.688;23.256;2023-11-22T07:17:11;20.20;;;17.95;;
20298;SDS011;10308;42.688;23.256;2023-11-22T07:19:40;19.17;;;17.08;;
20298;SDS011;10308;42.688;23.256;2023-11-22T07:22:12;20.80;;;18.70;;
20298;SDS011;10308;42.688;23.256;2023-11-22T07:24:44;19.73;;;17.50;;
20298;SDS011;10308;42.688;23.256;2023-11-22T07:27:11;18.65;;;16.80;;
20298;SDS011;10308;42.688;23.256;2023-11-22T07:29:40;20.33;;;18.33;;
20298;SDS011;10308;42.688;23.256;2023-11-22T07:32:08;18.90;;;17.05;;
20298;SDS011;10308;42.688;23.256;2023-11-22T07:34:38;20.17;;;18.10;;
20298;SDS011;10308;42.688;23.256;2023-11-22T07:37:06;19.95;;;17.92;;
20298;SDS011;10308;42.688;23.256;2023-11-22T07:39:33;24.98;;;22.55;;
20298;SDS011;10308;42.688;23.256;2023-11-22T07:42:00;25.45;;;23.05;;
20298;SDS011;10308;42.688;23.256;2023-11-22T07:44:27;25.48;;;22.92;;
20298;SDS011;10308;42.688;23.256;2023-11-22T07:46:57;22.65;;;20.45;;
20298;SDS011;10308;42.688;23.256;2023-11-22T07:49:25;21.17;;;19.15;;
20298;SDS011;10308;42.688;23.256;2023-11-22T07:51:54;21.13;;;19.20;;
20298;SDS011;10308;42.688;23.256;2023-11-22T07:54:21;20.92;;;18.92;;
20298;SDS011;10308;42.688;23.256;2023-11-22T07:56:48;20.17;;;18.08;;
20298;SDS011;10308;42.688;23.256;2023-11-22T07:59:15;18.85;;;17.10;;
20298;SDS011;10308;42.688;23.256;2023-11-22T08:01:43;18.13;;;16.40;;
20298;SDS011;10308;42.688;23.256;2023-11-22T08:04:10;16.35;;;14.77;;
20298;SDS011;10308;42.688;23.256;2023-11-22T08:06:37;13.00;;;11.80;;
20298;SDS011;10308;42.688;23.256;2023-11-22T08:09:05;14.48;;;12.98;;
20298;SDS011;10308;42.688;23.256;2023-11-22T08:11:34;14.13;;;12.82;;
20298;SDS011;10308;42.688;23.256;2023-11-22T08:14:01;13.38;;;11.98;;
20298;SDS011;10308;42.688;23.256;2023-11-22T08:16:28;12.10;;;11.00;;
20298;SDS011;10308;42.688;23.256;2023-11-22T08:18:55;13.55;;;12.25;;
20298;SDS011;10308;42.688;23.256;2023-11-22T08:21:22;13.40;;;12.20;;
20298;SDS011;10308;42.688;23.256;2023-11-22T08:23:48;14.63;;;13.13;;
20298;SDS011;10308;42.688;23.256;2023-11-22T08:26:17;15.23;;;13.75;;
20298;SDS011;10308;42.688;23.256;2023-11-22T08:28:44;14.45;;;13.15;;
20298;SDS011;10308;42.688;23.256;2023-11-22T08:31:10;14.63;;;13.27;;
20298;SDS011;10308;42.688;23.256;2023-11-22T08:33:41;14.45;;;13.02;;
20298;SDS011;10308;42.688;23.256;2023-11-22T08:36:08;16.70;;;15.00;;
20298;SDS011;10308;42.688;23.256;2023-11-22T08:38:35;15.00;;;13.52;;
20298;SDS011;10308;42.688;23.256;2023-11-22T08:41:05;14.32;;;12.60;;
20298;SDS011;10308;42.688;23.256;2023-11-22T08:43:35;16.67;;;14.95;;
20298;SDS011;10308;42.688;23.256;2023-11-22T08:46:02;19.42;;;17.55;;
20298;SDS011;10308;42.688;23.256;2023-11-22T08:48:31;23.55;;;21.13;;
20298;SDS011;10308;42.688;23.256;2023-11-22T08:50:58;23.90;;;21.20;;
20298;SDS011;10308;42.688;23.256;2023-11-22T08:53:27;22.95;;;20.77;;
20298;SDS011;10308;42.688;23.256;2023-11-22T08:55:55;21.25;;;19.25;;
20298;SDS011;10308;42.688;23.256;2023-11-22T08:58:22;22.15;;;19.95;;
20298;SDS011;10308;42.688;23.256;2023-11-22T09:00:51;21.77;;;19.67;;
20298;SDS011;10308;42.688;23.256;2023-11-22T09:03:20;23.45;;;21.27;;
20298;SDS011;10308;42.688;23.256;2023-11-22T09:05:48;28.05;;;25.35;;
20298;SDS011;10308;42.688;23.256;2023-11-22T09:08:16;25.75;;;23.13;;
20298;SDS011;10308;42.688;23.256;2023-11-22T09:10:46;18.30;;;16.55;;
20298;SDS011;10308;42.688;23.256;2023-11-22T09:13:14;14.73;;;13.18;;
20298;SDS011;10308;42.688;23.256;2023-11-22T09:15:43;13.77;;;12.52;;
20298;SDS011;10308;42.688;23.256;2023-11-22T09:18:12;14.38;;;12.98;;
20298;SDS011;10308;42.688;23.256;2023-11-22T09:20:39;12.90;;;11.60;;
20298;SDS011;10308;42.688;23.256;2023-11-22T09:23:09;12.98;;;11.73;;
20298;SDS011;10308;42.688;23.256;2023-11-22T09:25:36;12.10;;;10.95;;
20298;SDS011;10308;42.688;23.256;2023-11-22T09:28:04;13.07;;;11.88;;
20298;SDS011;10308;42.688;23.256;2023-11-22T09:30:32;12.95;;;11.73;;
20298;SDS011;10308;42.688;23.256;2023-11-22T09:33:00;14.15;;;12.88;;
20298;SDS011;10308;42.688;23.256;2023-11-22T09:35:29;14.07;;;12.77;;
20298;SDS011;10308;42.688;23.256;2023-11-22T09:37:57;13.77;;;12.57;;
20298;SDS011;10308;42.688;23.256;2023-11-22T09:40:24;14.93;;;13.47;;
20298;SDS011;10308;42.688;23.256;2023-11-22T09:42:54;13.25;;;11.95;;
20298;SDS011;10308;42.688;23.256;2023-11-22T09:45:23;13.82;;;12.52;;
20298;SDS011;10308;42.688;23.256;2023-11-22T09:47:51;13.32;;;12.25;;
20298;SDS011;10308;42.688;23.256;2023-11-22T09:50:19;13.98;;;12.68;;
20298;SDS011;10308;42.688;23.256;2023-11-22T09:52:49;13.88;;;12.52;;
20298;SDS011;10308;42.688;23.256;2023-11-22T09:55:19;14.00;;;12.80;;
20298;SDS011;10308;42.688;23.256;2023-11-22T09:57:47;13.95;;;12.75;;
20298;SDS011;10308;42.688;23.256;2023-11-22T10:00:15;12.88;;;11.63;;
20298;SDS011;10308;42.688;23.256;2023-11-22T10:02:44;12.98;;;11.77;;
20298;SDS011;10308;42.688;23.256;2023-11-22T10:05:11;13.43;;;12.13;;
20298;SDS011;10308;42.688;23.256;2023-11-22T10:07:39;13.30;;;12.00;;
20298;SDS011;10308;42.688;23.256;2023-11-22T10:10:08;12.70;;;11.50;;
20298;SDS011;10308;42.688;23.256;2023-11-22T10:12:36;12.82;;;11.52;;
20298;SDS011;10308;42.688;23.256;2023-11-22T10:15:14;13.45;;;12.25;;
20298;SDS011;10308;42.688;23.256;2023-11-22T10:17:47;14.07;;;12.73;;
20298;SDS011;10308;42.688;23.256;2023-11-22T10:20:22;12.55;;;11.45;;
20298;SDS011;10308;42.688;23.256;2023-11-22T10:22:51;13.45;;;12.07;;
20298;SDS011;10308;42.688;23.256;2023-11-22T10:25:20;15.52;;;14.23;;
20298;SDS011;10308;42.688;23.256;2023-11-22T10:27:48;15.80;;;14.48;;
20298;SDS011;10308;42.688;23.256;2023-11-22T10:30:16;22.10;;;20.23;;
20298;SDS011;10308;42.688;23.256;2023-11-22T10:32:45;24.25;;;22.35;;
20298;SDS011;10308;42.688;23.256;2023-11-22T10:35:12;27.02;;;24.73;;
20298;SDS011;10308;42.688;23.256;2023-11-22T10:37:41;26.50;;;24.30;;
20298;SDS011;10308;42.688;23.256;2023-11-22T10:40:10;26.55;;;24.38;;
20298;SDS011;10308;42.688;23.256;2023-11-22T10:42:41;27.88;;;25.58;;
20298;SDS011;10308;42.688;23.256;2023-11-22T10:45:11;29.00;;;26.40;;
20298;SDS011;10308;42.688;23.256;2023-11-22T10:47:39;29.88;;;27.33;;
20298;SDS011;10308;42.688;23.256;2023-11-22T10:50:08;28.23;;;25.83;;
20298;SDS011;10308;42.688;23.256;2023-11-22T10:52:39;26.27;;;23.90;;
20298;SDS011;10308;42.688;23.256;2023-11-22T10:55:07;24.00;;;22.00;;
20298;SDS011;10308;42.688;23.256;2023-11-22T10:57:39;22.70;;;20.80;;
20298;SDS011;10308;42.688;23.256;2023-11-22T11:00:11;21.30;;;19.50;;
20298;SDS011;10308;42.688;23.256;2023-11-22T11:02:40;21.80;;;19.90;;
20298;SDS011;10308;42.688;23.256;2023-11-22T11:05:11;21.50;;;19.60;;
20298;SDS011;10308;42.688;23.256;2023-11-22T11:07:46;21.60;;;19.75;;
20298;SDS011;10308;42.688;23.256;2023-11-22T11:10:17;21.60;;;19.70;;
20298;SDS011;10308;42.688;23.256;2023-11-22T11:12:47;21.80;;;19.83;;
20298;SDS011;10308;42.688;23.256;2023-11-22T11:15:14;20.77;;;18.88;;
20298;SDS011;10308;42.688;23.256;2023-11-22T11:17:42;21.63;;;19.70;;
20298;SDS011;10308;42.688;23.256;2023-11-22T11:20:15;24.38;;;21.95;;
20298;SDS011;10308;42.688;23.256;2023-11-22T11:22:43;27.15;;;24.50;;
20298;SDS011;10308;42.688;23.256;2023-11-22T11:25:13;26.17;;;23.75;;
20298;SDS011;10308;42.688;23.256;2023-11-22T11:27:42;24.63;;;22.42;;
20298;SDS011;10308;42.688;23.256;2023-11-22T11:33:09;22.63;;;20.65;;
20298;SDS011;10308;42.688;23.256;2023-11-22T11:35:43;21.95;;;19.85;;
20298;SDS011;10308;42.688;23.256;2023-11-22T11:38:12;22.48;;;20.38;;
20298;SDS011;10308;42.688;23.256;2023-11-22T11:40:40;21.35;;;19.45;;
20298;SDS011;10308;42.688;23.256;2023-11-22T11:43:07;20.98;;;19.10;;
20298;SDS011;10308;42.688;23.256;2023-11-22T11:45:37;19.42;;;17.45;;
20298;SDS011;10308;42.688;23.256;2023-11-22T11:48:08;22.63;;;20.73;;
20298;SDS011;10308;42.688;23.256;2023-11-22T11:50:35;25.73;;;23.23;;
20298;SDS011;10308;42.688;23.256;2023-11-22T11:53:02;27.35;;;24.60;;
20298;SDS011;10308;42.688;23.256;2023-11-22T11:55:29;26.23;;;23.80;;
20298;SDS011;10308;42.688;23.256;2023-11-22T11:57:56;22.55;;;20.50;;
20298;SDS011;10308;42.688;23.256;2023-11-22T12:00:23;25.58;;;23.30;;
20298;SDS011;10308;42.688;23.256;2023-11-22T12:02:53;33.50;;;30.50;;
20298;SDS011;10308;42.688;23.256;2023-11-22T12:05:22;38.05;;;34.55;;
20298;SDS011;10308;42.688;23.256;2023-11-22T12:07:50;39.75;;;35.97;;
20298;SDS011;10308;42.688;23.256;2023-11-22T12:10:17;48.58;;;44.05;;
20298;SDS011;10308;42.688;23.256;2023-11-22T12:12:44;45.45;;;41.60;;
20298;SDS011;10308;42.688;23.256;2023-11-22T12:15:12;40.30;;;36.67;;
20298;SDS011;10308;42.688;23.256;2023-11-22T12:17:42;31.17;;;28.27;;
20298;SDS011;10308;42.688;23.256;2023-11-22T12:20:11;24.90;;;22.60;;
20298;SDS011;10308;42.688;23.256;2023-11-22T12:22:42;22.17;;;20.27;;
20298;SDS011;10308;42.688;23.256;2023-11-22T12:25:10;20.83;;;19.02;;
20298;SDS011;10308;42.688;23.256;2023-11-22T12:27:41;22.73;;;20.63;;
20298;SDS011;10308;42.688;23.256;2023-11-22T12:30:08;20.75;;;18.95;;
20298;SDS011;10308;42.688;23.256;2023-11-22T12:32:38;20.45;;;18.48;;
20298;SDS011;10308;42.688;23.256;2023-11-22T12:35:07;19.55;;;17.85;;
20298;SDS011;10308;42.688;23.256;2023-11-22T12:37:34;18.25;;;16.52;;
20298;SDS011;10308;42.688;23.256;2023-11-22T12:40:08;15.88;;;14.48;;
20298;SDS011;10308;42.688;23.256;2023-11-22T12:42:45;17.23;;;15.70;;
20298;SDS011;10308;42.688;23.256;2023-11-22T12:45:20;15.45;;;13.98;;
20298;SDS011;10308;42.688;23.256;2023-11-22T12:47:49;15.55;;;14.10;;
20298;SDS011;10308;42.688;23.256;2023-11-22T12:50:30;16.73;;;15.00;;
20298;SDS011;10308;42.688;23.256;2023-11-22T12:52:58;15.98;;;14.27;;
20298;SDS011;10308;42.688;23.256;2023-11-22T12:55:29;15.30;;;13.77;;
20298;SDS011;10308;42.688;23.256;2023-11-22T12:57:57;14.95;;;13.55;;
20298;SDS011;10308;42.688;23.256;2023-11-22T13:00:27;16.20;;;13.43;;
20298;SDS011;10308;42.688;23.256;2023-11-22T13:02:55;15.02;;;13.45;;
20298;SDS011;10308;42.688;23.256;2023-11-22T13:05:22;13.02;;;11.73;;
20298;SDS011;10308;42.688;23.256;2023-11-22T13:07:49;13.40;;;12.00;;
20298;SDS011;10308;42.688;23.256;2023-11-22T13:10:16;13.77;;;12.48;;
20298;SDS011;10308;42.688;23.256;2023-11-22T13:12:47;14.20;;;12.77;;
20298;SDS011;10308;42.688;23.256;2023-11-22T13:15:13;15.20;;;13.52;;
20298;SDS011;10308;42.688;23.256;2023-11-22T13:17:42;15.63;;;13.30;;
20298;SDS011;10308;42.688;23.256;2023-11-22T13:20:11;19.00;;;15.18;;
20298;SDS011;10308;42.688;23.256;2023-11-22T13:22:40;20.45;;;17.73;;
20298;SDS011;10308;42.688;23.256;2023-11-22T13:25:08;21.35;;;18.05;;
20298;SDS011;10308;42.688;23.256;2023-11-22T13:27:39;22.55;;;19.20;;
20298;SDS011;10308;42.688;23.256;2023-11-22T13:30:09;23.15;;;20.25;;
20298;SDS011;10308;42.688;23.256;2023-11-22T13:32:37;26.10;;;23.25;;
20298;SDS011;10308;42.688;23.256;2023-11-22T13:35:06;30.92;;;28.00;;
20298;SDS011;10308;42.688;23.256;2023-11-22T13:37:41;32.38;;;29.30;;
20298;SDS011;10308;42.688;23.256;2023-11-22T13:40:09;29.88;;;26.98;;
20298;SDS011;10308;42.688;23.256;2023-11-22T13:42:41;31.13;;;28.13;;
20298;SDS011;10308;42.688;23.256;2023-11-22T13:45:11;32.10;;;29.00;;
20298;SDS011;10308;42.688;23.256;2023-11-22T13:47:41;30.15;;;27.25;;
20298;SDS011;10308;42.688;23.256;2023-11-22T13:50:10;30.70;;;27.92;;
20298;SDS011;10308;42.688;23.256;2023-11-22T13:52:38;31.42;;;28.52;;
20298;SDS011;10308;42.688;23.256;2023-11-22T13:55:05;30.92;;;28.17;;
20298;SDS011;10308;42.688;23.256;2023-11-22T13:57:36;25.55;;;23.15;;
20298;SDS011;10308;42.688;23.256;2023-11-22T14:00:03;21.48;;;19.50;;
20298;SDS011;10308;42.688;23.256;2023-11-22T14:02:35;20.95;;;19.05;;
20298;SDS011;10308;42.688;23.256;2023-11-22T14:05:02;22.88;;;20.65;;
20298;SDS011;10308;42.688;23.256;2023-11-22T14:07:33;23.70;;;21.33;;
20298;SDS011;10308;42.688;23.256;2023-11-22T14:10:00;20.90;;;18.80;;
20298;SDS011;10308;42.688;23.256;2023-11-22T14:12:28;20.92;;;18.85;;
20298;SDS011;10308;42.688;23.256;2023-11-22T14:14:56;18.63;;;16.63;;
20298;SDS011;10308;42.688;23.256;2023-11-22T14:17:24;16.75;;;15.05;;